sensor_id;sensor_type;location;lat;lon;timestamp;pressure;altitude;pressure_sealevel;temperature;humidity
43071;BME280;36278;47.952;21.714;2023-09-19T00:00:46;100113.16;;;20.19;85.79
43071;BME280;36278;47.952;21.714;2023-09-19T00:03:15;100115.50;;;20.22;85.57
43071;BME280;36278;47.952;21.714;2023-09-19T00:05:40;100113.00;;;20.21;86.09
43071;BME280;36278;47.952;21.714;2023-09-19T00:08:09;100104.63;;;20.15;86.71
43071;BME280;36278;47.952;21.714;2023-09-19T00:10:34;100102.41;;;20.19;86.36
43071;BME280;36278;47.952;21.714;2023-09-19T00:13:03;100101.41;;;20.20;86.25
43071;BME280;36278;47.952;21.714;2023-09-19T00:15:43;100099.72;;;20.19;86.53
43071;BME280;36278;47.952;21.714;2023-09-19T00:18:14;100097.03;;;20.19;86.25
43071;BME280;36278;47.952;21.714;2023-09-19T00:20:41;100086.94;;;20.21;86.04
43071;BME280;36278;47.952;21.714;2023-09-19T00:23:07;100089.78;;;20.20;86.02
43071;BME280;36278;47.952;21.714;2023-09-19T00:25:39;100088.81;;;20.21;85.87
43071;BME280;36278;47.952;21.714;2023-09-19T00:28:06;100089.34;;;20.16;84.90
43071;BME280;36278;47.952;21.714;2023-09-19T00:30:33;100079.97;;;20.12;85.52
43071;BME280;36278;47.952;21.714;2023-09-19T00:32:59;100081.28;;;20.16;84.95
43071;BME280;36278;47.952;21.714;2023-09-19T00:35:26;100073.38;;;20.14;85.42
43071;BME280;36278;47.952;21.714;2023-09-19T00:37:52;100073.38;;;20.14;84.93
43071;BME280;36278;47.952;21.714;2023-09-19T00:40:18;100064.28;;;20.15;84.76
43071;BME280;36278;47.952;21.714;2023-09-19T00:42:47;100067.00;;;20.15;84.62
43071;BME280;36278;47.952;21.714;2023-09-19T00:45:14;100062.25;;;20.17;84.25
43071;BME280;36278;47.952;21.714;2023-09-19T00:47:46;100062.63;;;20.14;84.39
43071;BME280;36278;47.952;21.714;2023-09-19T00:50:16;100061.22;;;20.19;83.80
43071;BME280;36278;47.952;21.714;2023-09-19T00:52:44;100057.91;;;20.16;84.07
43071;BME280;36278;47.952;21.714;2023-09-19T00:55:11;100051.22;;;20.12;84.23
43071;BME280;36278;47.952;21.714;2023-09-19T00:57:39;100049.00;;;20.16;83.53
43071;BME280;36278;47.952;21.714;2023-09-19T01:00:07;100044.06;;;20.20;83.21
43071;BME280;36278;47.952;21.714;2023-09-19T01:02:35;100026.47;;;20.17;82.68
43071;BME280;36278;47.952;21.714;2023-09-19T01:05:01;100041.38;;;20.20;82.90
43071;BME280;36278;47.952;21.714;2023-09-19T01:07:29;100039.38;;;20.22;81.98
43071;BME280;36278;47.952;21.714;2023-09-19T01:10:00;100036.88;;;20.20;81.99
43071;BME280;36278;47.952;21.714;2023-09-19T01:21:15;100040.47;;;20.27;80.83
43071;BME280;36278;47.952;21.714;2023-09-19T01:26:30;100030.28;;;20.23;84.47
43071;BME280;36278;47.952;21.714;2023-09-19T01:29:26;100015.50;;;20.19;85.52
43071;BME280;36278;47.952;21.714;2023-09-19T01:32:03;100038.88;;;20.03;88.43
43071;BME280;36278;47.952;21.714;2023-09-19T01:34:52;100042.50;;;19.96;89.27
43071;BME280;36278;47.952;21.714;2023-09-19T01:37:20;100025.78;;;19.85;88.47
43071;BME280;36278;47.952;21.714;2023-09-19T01:39:57;100013.09;;;19.79;89.25
43071;BME280;36278;47.952;21.714;2023-09-19T01:51:00;99999.81;;;19.63;90.43
43071;BME280;36278;47.952;21.714;2023-09-19T01:53:44;100001.19;;;19.59;90.55
43071;BME280;36278;47.952;21.714;2023-09-19T01:56:22;99996.63;;;19.59;90.83
43071;BME280;36278;47.952;21.714;2023-09-19T01:58:49;99998.69;;;19.57;92.78
43071;BME280;36278;47.952;21.714;2023-09-19T02:01:19;100007.91;;;19.55;92.24
43071;BME280;36278;47.952;21.714;2023-09-19T02:03:49;100024.19;;;19.53;91.79
43071;BME280;36278;47.952;21.714;2023-09-19T02:06:16;100029.94;;;19.50;93.52
43071;BME280;36278;47.952;21.714;2023-09-19T02:08:43;100047.59;;;19.45;92.31
43071;BME280;36278;47.952;21.714;2023-09-19T02:11:08;100037.22;;;19.42;94.20
43071;BME280;36278;47.952;21.714;2023-09-19T02:13:34;100042.41;;;19.43;97.30
43071;BME280;36278;47.952;21.714;2023-09-19T02:15:59;100069.66;;;19.40;98.12
43071;BME280;36278;47.952;21.714;2023-09-19T02:18:25;100056.94;;;19.34;100.00
43071;BME280;36278;47.952;21.714;2023-09-19T02:20:53;100074.44;;;19.22;100.00
43071;BME280;36278;47.952;21.714;2023-09-19T02:23:19;100068.75;;;18.94;100.00
43071;BME280;36278;47.952;21.714;2023-09-19T02:25:54;100062.50;;;18.70;100.00
43071;BME280;36278;47.952;21.714;2023-09-19T02:28:20;100050.97;;;18.54;100.00
43071;BME280;36278;47.952;21.714;2023-09-19T02:30:48;100034.34;;;18.19;100.00
43071;BME280;36278;47.952;21.714;2023-09-19T02:33:16;100020.31;;;18.09;100.00
43071;BME280;36278;47.952;21.714;2023-09-19T02:35:42;100016.47;;;18.03;100.00
43071;BME280;36278;47.952;21.714;2023-09-19T02:38:08;99996.84;;;18.11;100.00
43071;BME280;36278;47.952;21.714;2023-09-19T02:40:36;100007.88;;;18.08;100.00
43071;BME280;36278;47.952;21.714;2023-09-19T02:43:02;100012.41;;;18.07;100.00
43071;BME280;36278;47.952;21.714;2023-09-19T02:45:28;100008.59;;;18.02;100.00
43071;BME280;36278;47.952;21.714;2023-09-19T02:47:55;99996.19;;;18.01;100.00
43071;BME280;36278;47.952;21.714;2023-09-19T02:50:20;99998.19;;;17.99;100.00
43071;BME280;36278;47.952;21.714;2023-09-19T02:52:46;99990.66;;;18.02;100.00
43071;BME280;36278;47.952;21.714;2023-09-19T02:55:14;99992.53;;;17.93;100.00
43071;BME280;36278;47.952;21.714;2023-09-19T02:57:50;99994.53;;;17.91;100.00
43071;BME280;36278;47.952;21.714;2023-09-19T03:00:17;99990.53;;;17.87;100.00
43071;BME280;36278;47.952;21.714;2023-09-19T03:02:46;100000.91;;;17.90;100.00
43071;BME280;36278;47.952;21.714;2023-09-19T03:05:12;99978.63;;;17.90;100.00
43071;BME280;36278;47.952;21.714;2023-09-19T03:07:37;99989.53;;;17.88;100.00
43071;BME280;36278;47.952;21.714;2023-09-19T03:10:05;99991.19;;;17.89;100.00
43071;BME280;36278;47.952;21.714;2023-09-19T03:12:31;99989.53;;;17.88;100.00
43071;BME280;36278;47.952;21.714;2023-09-19T03:14:57;99990.19;;;17.90;100.00
43071;BME280;36278;47.952;21.714;2023-09-19T03:17:23;99995.06;;;17.87;100.00
43071;BME280;36278;47.952;21.714;2023-09-19T03:19:48;99984.34;;;17.87;100.00
43071;BME280;36278;47.952;21.714;2023-09-19T03:22:14;99984.00;;;17.82;100.00
43071;BME280;36278;47.952;21.714;2023-09-19T03:24:40;99983.16;;;17.81;100.00
43071;BME280;36278;47.952;21.714;2023-09-19T03:27:09;99973.63;;;17.79;100.00
43071;BME280;36278;47.952;21.714;2023-09-19T03:29:34;99974.28;;;17.81;100.00
43071;BME280;36278;47.952;21.714;2023-09-19T03:32:00;99967.44;;;17.78;100.00
43071;BME280;36278;47.952;21.714;2023-09-19T03:34:26;99979.47;;;17.82;100.00
43071;BME280;36278;47.952;21.714;2023-09-19T03:36:52;99979.47;;;17.82;100.00
43071;BME280;36278;47.952;21.714;2023-09-19T03:39:17;99988.03;;;17.86;100.00
43071;BME280;36278;47.952;21.714;2023-09-19T03:41:43;99991.72;;;17.85;100.00
43071;BME280;36278;47.952;21.714;2023-09-19T03:44:09;99979.16;;;17.85;100.00
43071;BME280;36278;47.952;21.714;2023-09-19T03:46:34;99977.97;;;17.88;100.00
43071;BME280;36278;47.952;21.714;2023-09-19T03:49:00;99970.75;;;17.88;100.00
43071;BME280;36278;47.952;21.714;2023-09-19T03:51:26;99964.91;;;17.93;100.00
43071;BME280;36278;47.952;21.714;2023-09-19T03:53:51;99970.41;;;17.91;100.00
43071;BME280;36278;47.952;21.714;2023-09-19T03:56:17;99966.88;;;17.91;100.00
43071;BME280;36278;47.952;21.714;2023-09-19T03:58:42;99976.78;;;17.90;100.00
43071;BME280;36278;47.952;21.714;2023-09-19T04:01:08;99972.59;;;17.88;100.00
43071;BME280;36278;47.952;21.714;2023-09-19T04:03:34;99972.97;;;17.77;100.00
43071;BME280;36278;47.952;21.714;2023-09-19T04:06:10;99972.97;;;17.77;100.00
43071;BME280;36278;47.952;21.714;2023-09-19T04:08:37;99976.81;;;17.74;100.00
43071;BME280;36278;47.952;21.714;2023-09-19T04:11:02;99975.81;;;17.75;100.00
43071;BME280;36278;47.952;21.714;2023-09-19T04:13:28;99958.41;;;17.71;100.00
43071;BME280;36278;47.952;21.714;2023-09-19T04:15:53;99964.25;;;17.75;100.00
43071;BME280;36278;47.952;21.714;2023-09-19T04:18:19;99964.75;;;17.78;100.00
43071;BME280;36278;47.952;21.714;2023-09-19T04:20:49;99966.78;;;17.76;100.00
43071;BME280;36278;47.952;21.714;2023-09-19T04:23:15;99973.78;;;17.69;100.00
43071;BME280;36278;47.952;21.714;2023-09-19T04:25:41;99969.78;;;17.65;100.00
43071;BME280;36278;47.952;21.714;2023-09-19T04:28:06;99977.16;;;17.71;100.00
43071;BME280;36278;47.952;21.714;2023-09-19T04:30:32;99975.13;;;17.65;100.00
43071;BME280;36278;47.952;21.714;2023-09-19T04:32:57;99976.13;;;17.64;100.00
43071;BME280;36278;47.952;21.714;2023-09-19T04:35:22;99964.78;;;17.54;100.00
43071;BME280;36278;47.952;21.714;2023-09-19T04:37:48;99980.84;;;17.62;100.00
43071;BME280;36278;47.952;21.714;2023-09-19T04:40:15;99975.97;;;17.65;100.00
43071;BME280;36278;47.952;21.714;2023-09-19T04:42:53;99966.91;;;17.66;100.00
43071;BME280;36278;47.952;21.714;2023-09-19T04:45:21;99970.44;;;17.67;100.00
43071;BME280;36278;47.952;21.714;2023-09-19T04:47:46;99969.28;;;17.70;100.00
43071;BME280;36278;47.952;21.714;2023-09-19T04:50:12;99967.47;;;17.70;100.00
43071;BME280;36278;47.952;21.714;2023-09-19T04:52:42;99971.81;;;17.71;100.00
43071;BME280;36278;47.952;21.714;2023-09-19T04:55:13;99972.66;;;17.72;100.00
43071;BME280;36278;47.952;21.714;2023-09-19T04:57:49;99972.28;;;17.75;100.00
43071;BME280;36278;47.952;21.714;2023-09-19T05:00:16;99975.13;;;17.65;100.00
43071;BME280;36278;47.952;21.714;2023-09-19T05:02:45;99983.19;;;17.73;100.00
43071;BME280;36278;47.952;21.714;2023-09-19T05:05:11;99987.72;;;17.73;100.00
43071;BME280;36278;47.952;21.714;2023-09-19T05:07:39;99985.69;;;17.75;100.00
43071;BME280;36278;47.952;21.714;2023-09-19T05:10:05;99983.69;;;17.69;100.00
43071;BME280;36278;47.952;21.714;2023-09-19T05:12:36;99985.34;;;17.70;100.00
43071;BME280;36278;47.952;21.714;2023-09-19T05:15:06;99990.91;;;17.76;100.00
43071;BME280;36278;47.952;21.714;2023-09-19T05:17:33;99989.88;;;17.85;100.00
43071;BME280;36278;47.952;21.714;2023-09-19T05:19:59;99987.38;;;17.84;100.00
43071;BME280;36278;47.952;21.714;2023-09-19T05:22:28;99984.50;;;17.93;100.00
43071;BME280;36278;47.952;21.714;2023-09-19T05:24:54;99991.84;;;17.91;100.00
43071;BME280;36278;47.952;21.714;2023-09-19T05:27:19;99994.53;;;17.91;100.00
43071;BME280;36278;47.952;21.714;2023-09-19T05:29:46;99986.84;;;17.88;100.00
43071;BME280;36278;47.952;21.714;2023-09-19T05:32:12;99988.34;;;17.91;100.00
43071;BME280;36278;47.952;21.714;2023-09-19T05:34:38;99982.47;;;17.96;100.00
43071;BME280;36278;47.952;21.714;2023-09-19T05:37:04;99983.66;;;17.93;100.00
43071;BME280;36278;47.952;21.714;2023-09-19T05:39:33;99977.09;;;17.96;100.00
43071;BME280;36278;47.952;21.714;2023-09-19T05:41:59;99979.63;;;17.97;100.00
43071;BME280;36278;47.952;21.714;2023-09-19T05:44:28;99980.78;;;18.03;100.00
43071;BME280;36278;47.952;21.714;2023-09-19T05:46:54;99991.13;;;18.06;100.00
43071;BME280;36278;47.952;21.714;2023-09-19T05:49:22;99986.78;;;18.05;100.00
43071;BME280;36278;47.952;21.714;2023-09-19T05:51:47;99983.59;;;18.09;100.00
43071;BME280;36278;47.952;21.714;2023-09-19T05:54:13;99979.91;;;18.10;100.00
43071;BME280;36278;47.952;21.714;2023-09-19T05:56:38;99966.69;;;18.09;100.00
43071;BME280;36278;47.952;21.714;2023-09-19T05:59:04;99972.53;;;18.12;100.00
43071;BME280;36278;47.952;21.714;2023-09-19T06:01:31;99972.03;;;18.17;100.00
43071;BME280;36278;47.952;21.714;2023-09-19T06:03:58;99961.63;;;18.14;100.00
43071;BME280;36278;47.952;21.714;2023-09-19T06:06:25;99963.84;;;18.10;100.00
43071;BME280;36278;47.952;21.714;2023-09-19T06:08:51;99971.50;;;18.13;100.00
43071;BME280;36278;47.952;21.714;2023-09-19T06:11:17;99959.59;;;18.16;100.00
43071;BME280;36278;47.952;21.714;2023-09-19T06:13:45;99961.94;;;18.19;100.00
43071;BME280;36278;47.952;21.714;2023-09-19T06:16:12;99958.72;;;18.24;100.00
43071;BME280;36278;47.952;21.714;2023-09-19T06:18:38;99949.16;;;18.29;100.00
43071;BME280;36278;47.952;21.714;2023-09-19T06:21:04;99966.88;;;18.38;100.00
43071;BME280;36278;47.952;21.714;2023-09-19T06:23:34;99969.53;;;18.46;100.00
43071;BME280;36278;47.952;21.714;2023-09-19T06:26:00;99964.16;;;18.46;100.00
43071;BME280;36278;47.952;21.714;2023-09-19T06:28:25;99958.63;;;18.48;100.00
43071;BME280;36278;47.952;21.714;2023-09-19T06:30:54;99963.84;;;18.49;100.00
43071;BME280;36278;47.952;21.714;2023-09-19T06:33:20;99953.38;;;18.55;100.00
43071;BME280;36278;47.952;21.714;2023-09-19T06:35:47;99948.81;;;18.63;100.00
43071;BME280;36278;47.952;21.714;2023-09-19T06:38:13;99953.50;;;18.69;100.00
43071;BME280;36278;47.952;21.714;2023-09-19T06:40:41;99950.31;;;18.74;100.00
43071;BME280;36278;47.952;21.714;2023-09-19T06:43:10;99945.94;;;18.73;100.00
43071;BME280;36278;47.952;21.714;2023-09-19T06:45:36;99948.56;;;18.81;100.00
43071;BME280;36278;47.952;21.714;2023-09-19T06:48:01;99949.69;;;18.87;100.00
43071;BME280;36278;47.952;21.714;2023-09-19T06:50:28;99949.50;;;18.88;100.00
43071;BME280;36278;47.952;21.714;2023-09-19T06:52:56;99950.34;;;18.89;100.00
43071;BME280;36278;47.952;21.714;2023-09-19T06:55:25;99946.97;;;18.95;100.00
43071;BME280;36278;47.952;21.714;2023-09-19T06:57:54;99947.13;;;18.93;100.00
43071;BME280;36278;47.952;21.714;2023-09-19T07:00:20;99960.75;;;18.92;100.00
43071;BME280;36278;47.952;21.714;2023-09-19T07:05:22;99952.69;;;18.92;100.00
43071;BME280;36278;47.952;21.714;2023-09-19T07:07:48;99963.19;;;19.01;100.00
43071;BME280;36278;47.952;21.714;2023-09-19T07:10:14;99965.38;;;19.21;100.00
43071;BME280;36278;47.952;21.714;2023-09-19T07:12:39;99966.44;;;19.35;100.00
43071;BME280;36278;47.952;21.714;2023-09-19T07:15:06;99971.44;;;19.60;100.00
43071;BME280;36278;47.952;21.714;2023-09-19T07:17:32;99961.94;;;19.87;100.00
43071;BME280;36278;47.952;21.714;2023-09-19T07:19:58;99958.38;;;20.16;100.00
43071;BME280;36278;47.952;21.714;2023-09-19T07:22:25;99966.44;;;20.31;100.00
43071;BME280;36278;47.952;21.714;2023-09-19T07:24:51;99959.94;;;20.40;100.00
43071;BME280;36278;47.952;21.714;2023-09-19T07:27:17;99955.59;;;20.54;98.32
43071;BME280;36278;47.952;21.714;2023-09-19T07:29:42;99962.41;;;20.71;98.32
43071;BME280;36278;47.952;21.714;2023-09-19T07:32:08;99959.84;;;20.85;92.79
43071;BME280;36278;47.952;21.714;2023-09-19T07:34:35;99955.22;;;21.00;93.21
43071;BME280;36278;47.952;21.714;2023-09-19T07:37:00;99961.38;;;21.15;89.79
43071;BME280;36278;47.952;21.714;2023-09-19T07:39:26;99956.16;;;21.29;89.59
43071;BME280;36278;47.952;21.714;2023-09-19T07:41:52;99954.22;;;21.44;87.05
43071;BME280;36278;47.952;21.714;2023-09-19T07:44:18;99958.63;;;21.51;87.55
43071;BME280;36278;47.952;21.714;2023-09-19T07:46:44;99955.09;;;21.51;84.30
43071;BME280;36278;47.952;21.714;2023-09-19T07:49:10;99961.31;;;21.51;83.85
43071;BME280;36278;47.952;21.714;2023-09-19T07:51:35;99959.81;;;21.49;83.89
43071;BME280;36278;47.952;21.714;2023-09-19T07:54:01;99956.50;;;21.47;83.42
43071;BME280;36278;47.952;21.714;2023-09-19T07:56:27;99956.63;;;21.60;82.93
43071;BME280;36278;47.952;21.714;2023-09-19T07:58:53;99948.38;;;21.68;81.91
43071;BME280;36278;47.952;21.714;2023-09-19T08:01:18;99952.59;;;21.77;81.66
43071;BME280;36278;47.952;21.714;2023-09-19T08:03:43;99955.06;;;21.79;82.41
43071;BME280;36278;47.952;21.714;2023-09-19T08:06:10;99952.63;;;21.84;82.50
43071;BME280;36278;47.952;21.714;2023-09-19T08:08:37;99951.13;;;21.81;82.07
43071;BME280;36278;47.952;21.714;2023-09-19T08:11:03;99953.66;;;21.83;81.75
43071;BME280;36278;47.952;21.714;2023-09-19T08:13:37;99952.63;;;21.84;82.48
43071;BME280;36278;47.952;21.714;2023-09-19T08:16:09;99951.78;;;21.83;82.62
43071;BME280;36278;47.952;21.714;2023-09-19T08:18:36;99956.38;;;21.83;81.96
43071;BME280;36278;47.952;21.714;2023-09-19T08:21:03;99963.00;;;21.87;82.66
43071;BME280;36278;47.952;21.714;2023-09-19T08:23:29;99961.16;;;21.88;81.95
43071;BME280;36278;47.952;21.714;2023-09-19T08:25:58;99948.69;;;21.87;81.82
43071;BME280;36278;47.952;21.714;2023-09-19T08:28:28;99945.78;;;21.88;80.44
43071;BME280;36278;47.952;21.714;2023-09-19T08:33:23;99953.09;;;21.94;81.83
43071;BME280;36278;47.952;21.714;2023-09-19T08:35:49;99941.91;;;21.97;82.59
43071;BME280;36278;47.952;21.714;2023-09-19T08:38:15;99946.00;;;22.21;81.24
43071;BME280;36278;47.952;21.714;2023-09-19T08:40:42;99950.91;;;22.52;79.28
43071;BME280;36278;47.952;21.714;2023-09-19T08:43:09;99942.03;;;22.78;78.38
43071;BME280;36278;47.952;21.714;2023-09-19T08:45:36;99941.06;;;22.92;78.95
43071;BME280;36278;47.952;21.714;2023-09-19T08:50:46;99936.72;;;22.98;78.11
43071;BME280;36278;47.952;21.714;2023-09-19T08:53:21;99931.50;;;22.97;77.43
43071;BME280;36278;47.952;21.714;2023-09-19T08:55:52;99932.16;;;22.99;77.43
43071;BME280;36278;47.952;21.714;2023-09-19T08:58:21;99928.19;;;22.94;77.58
43071;BME280;36278;47.952;21.714;2023-09-19T09:00:54;99930.25;;;22.92;78.10
43071;BME280;36278;47.952;21.714;2023-09-19T09:03:21;99937.75;;;22.90;78.93
43071;BME280;36278;47.952;21.714;2023-09-19T09:05:50;99937.31;;;22.87;79.65
43071;BME280;36278;47.952;21.714;2023-09-19T09:08:17;99926.28;;;22.82;79.47
43071;BME280;36278;47.952;21.714;2023-09-19T09:10:45;99933.53;;;22.81;79.67
43071;BME280;36278;47.952;21.714;2023-09-19T09:13:12;99929.38;;;22.79;79.22
43071;BME280;36278;47.952;21.714;2023-09-19T09:15:40;99926.03;;;22.77;81.26
43071;BME280;36278;47.952;21.714;2023-09-19T09:18:06;99931.03;;;22.80;81.60
43071;BME280;36278;47.952;21.714;2023-09-19T09:20:32;99918.34;;;22.80;82.20
43071;BME280;36278;47.952;21.714;2023-09-19T09:22:58;99921.09;;;22.87;82.03
43071;BME280;36278;47.952;21.714;2023-09-19T09:28:21;99900.75;;;22.91;79.96
43071;BME280;36278;47.952;21.714;2023-09-19T09:30:46;99911.97;;;22.94;80.45
43071;BME280;36278;47.952;21.714;2023-09-19T09:33:13;99909.69;;;22.98;81.37
43071;BME280;36278;47.952;21.714;2023-09-19T09:35:56;99906.78;;;23.00;81.44
43071;BME280;36278;47.952;21.714;2023-09-19T09:38:24;99914.69;;;23.01;80.54
43071;BME280;36278;47.952;21.714;2023-09-19T09:40:54;99917.81;;;22.98;81.03
43071;BME280;36278;47.952;21.714;2023-09-19T09:43:40;99925.91;;;22.91;80.50
43071;BME280;36278;47.952;21.714;2023-09-19T09:46:14;99915.84;;;22.79;81.95
43071;BME280;36278;47.952;21.714;2023-09-19T09:51:42;99918.94;;;22.62;83.38
43071;BME280;36278;47.952;21.714;2023-09-19T09:54:17;99914.56;;;22.55;84.25
43071;BME280;36278;47.952;21.714;2023-09-19T09:56:57;99904.78;;;22.47;84.85
43071;BME280;36278;47.952;21.714;2023-09-19T10:02:29;99903.50;;;22.36;86.27
43071;BME280;36278;47.952;21.714;2023-09-19T10:04:55;99905.78;;;22.39;86.29
43071;BME280;36278;47.952;21.714;2023-09-19T10:07:25;99907.66;;;22.39;86.99
43071;BME280;36278;47.952;21.714;2023-09-19T10:09:53;99907.66;;;22.39;86.14
43071;BME280;36278;47.952;21.714;2023-09-19T10:12:24;99903.09;;;22.33;86.44
43071;BME280;36278;47.952;21.714;2023-09-19T10:14:56;99898.53;;;22.33;86.68
43071;BME280;36278;47.952;21.714;2023-09-19T10:17:25;99892.13;;;22.41;86.73
43071;BME280;36278;47.952;21.714;2023-09-19T10:19:55;99886.13;;;22.52;86.57
43071;BME280;36278;47.952;21.714;2023-09-19T10:22:26;99889.25;;;22.62;85.86
43071;BME280;36278;47.952;21.714;2023-09-19T10:24:53;99882.81;;;22.70;86.76
43071;BME280;36278;47.952;21.714;2023-09-19T10:27:19;99892.19;;;22.74;87.74
43071;BME280;36278;47.952;21.714;2023-09-19T10:29:49;99890.09;;;22.76;87.09
43071;BME280;36278;47.952;21.714;2023-09-19T10:32:19;99890.94;;;22.77;87.78
43071;BME280;36278;47.952;21.714;2023-09-19T10:34:50;99890.09;;;22.76;87.64
43071;BME280;36278;47.952;21.714;2023-09-19T10:37:16;99889.69;;;22.73;88.13
43071;BME280;36278;47.952;21.714;2023-09-19T10:39:49;99884.91;;;22.68;89.55
43071;BME280;36278;47.952;21.714;2023-09-19T10:42:19;99882.41;;;22.60;91.17
43071;BME280;36278;47.952;21.714;2023-09-19T10:44:47;99884.88;;;22.55;91.40
43071;BME280;36278;47.952;21.714;2023-09-19T10:47:19;99878.00;;;22.46;91.83
43071;BME280;36278;47.952;21.714;2023-09-19T10:49:46;99881.31;;;22.41;91.93
43071;BME280;36278;47.952;21.714;2023-09-19T10:52:18;99872.56;;;22.32;93.59
43071;BME280;36278;47.952;21.714;2023-09-19T10:54:48;99868.19;;;22.31;92.09
43071;BME280;36278;47.952;21.714;2023-09-19T10:57:22;99874.44;;;22.32;91.98
43071;BME280;36278;47.952;21.714;2023-09-19T11:00:06;99872.97;;;22.29;91.48
43071;BME280;36278;47.952;21.714;2023-09-19T11:03:20;99863.22;;;22.28;91.69
43071;BME280;36278;47.952;21.714;2023-09-19T11:06:04;99860.94;;;22.25;90.48
43071;BME280;36278;47.952;21.714;2023-09-19T11:08:50;99868.81;;;22.27;90.00
43071;BME280;36278;47.952;21.714;2023-09-19T11:30:51;99855.78;;;22.44;85.35
43071;BME280;36278;47.952;21.714;2023-09-19T11:33:27;99858.25;;;22.38;85.54
43071;BME280;36278;47.952;21.714;2023-09-19T11:46:32;99869.69;;;21.93;91.50
43071;BME280;36278;47.952;21.714;2023-09-19T11:49:09;99863.69;;;21.97;91.96
43071;BME280;36278;47.952;21.714;2023-09-19T11:51:44;99867.41;;;21.96;93.03
43071;BME280;36278;47.952;21.714;2023-09-19T11:54:11;99868.41;;;21.89;94.04
43071;BME280;36278;47.952;21.714;2023-09-19T11:56:45;99865.19;;;21.65;96.11
43071;BME280;36278;47.952;21.714;2023-09-19T11:59:11;99862.72;;;21.70;96.11
43071;BME280;36278;47.952;21.714;2023-09-19T12:01:41;99859.28;;;21.83;95.17
43071;BME280;36278;47.952;21.714;2023-09-19T12:04:11;99850.13;;;21.77;95.21
43071;BME280;36278;47.952;21.714;2023-09-19T12:06:37;99862.41;;;21.87;94.86
43071;BME280;36278;47.952;21.714;2023-09-19T12:09:12;99855.97;;;21.88;94.75
43071;BME280;36278;47.952;21.714;2023-09-19T12:11:42;99862.44;;;21.93;94.23
43071;BME280;36278;47.952;21.714;2023-09-19T12:14:09;99874.25;;;21.99;94.27
43071;BME280;36278;47.952;21.714;2023-09-19T12:16:35;99874.38;;;21.77;94.13
43071;BME280;36278;47.952;21.714;2023-09-19T12:19:20;99872.06;;;21.74;96.11
43071;BME280;36278;47.952;21.714;2023-09-19T12:22:00;99877.84;;;21.65;94.73
43071;BME280;36278;47.952;21.714;2023-09-19T12:24:34;99880.56;;;21.71;94.70
43071;BME280;36278;47.952;21.714;2023-09-19T12:27:07;99879.94;;;21.69;94.98
43071;BME280;36278;47.952;21.714;2023-09-19T12:29:44;99874.31;;;21.64;96.22
43071;BME280;36278;47.952;21.714;2023-09-19T12:32:10;99886.38;;;21.68;95.83
43071;BME280;36278;47.952;21.714;2023-09-19T12:34:36;99885.34;;;21.69;95.80
43071;BME280;36278;47.952;21.714;2023-09-19T12:39:52;99878.28;;;21.68;96.42
43071;BME280;36278;47.952;21.714;2023-09-19T12:42:23;99889.13;;;21.47;97.56
43071;BME280;36278;47.952;21.714;2023-09-19T12:44:50;99890.56;;;21.43;98.81
43071;BME280;36278;47.952;21.714;2023-09-19T12:47:20;99891.78;;;21.40;98.78
43071;BME280;36278;47.952;21.714;2023-09-19T12:50:13;99897.81;;;21.42;98.73
43071;BME280;36278;47.952;21.714;2023-09-19T12:52:54;99890.31;;;21.38;99.34
43071;BME280;36278;47.952;21.714;2023-09-19T12:55:28;99907.50;;;21.37;99.51
43071;BME280;36278;47.952;21.714;2023-09-19T12:58:03;99899.56;;;21.29;99.18
43071;BME280;36278;47.952;21.714;2023-09-19T13:03:16;99907.09;;;21.40;100.00
43071;BME280;36278;47.952;21.714;2023-09-19T13:08:27;99913.94;;;21.36;96.47
43071;BME280;36278;47.952;21.714;2023-09-19T13:11:11;99913.78;;;21.44;95.11
43071;BME280;36278;47.952;21.714;2023-09-19T13:22:38;99931.13;;;21.35;96.61
43071;BME280;36278;47.952;21.714;2023-09-19T13:25:06;99933.81;;;21.35;99.50
43071;BME280;36278;47.952;21.714;2023-09-19T13:27:32;99933.94;;;21.05;100.00
43071;BME280;36278;47.952;21.714;2023-09-19T13:29:58;99941.75;;;21.00;100.00
43071;BME280;36278;47.952;21.714;2023-09-19T13:32:25;99940.88;;;20.71;100.00
43071;BME280;36278;47.952;21.714;2023-09-19T13:34:51;99950.84;;;20.56;100.00
43071;BME280;36278;47.952;21.714;2023-09-19T13:37:17;99945.22;;;20.36;100.00
43071;BME280;36278;47.952;21.714;2023-09-19T13:39:44;99956.72;;;20.30;100.00
43071;BME280;36278;47.952;21.714;2023-09-19T13:42:15;99956.13;;;20.35;100.00
43071;BME280;36278;47.952;21.714;2023-09-19T13:44:42;99959.50;;;20.37;100.00
43071;BME280;36278;47.952;21.714;2023-09-19T13:47:09;99962.84;;;20.24;100.00
43071;BME280;36278;47.952;21.714;2023-09-19T13:49:40;99967.19;;;20.10;100.00
43071;BME280;36278;47.952;21.714;2023-09-19T13:52:12;99966.94;;;20.05;100.00
43071;BME280;36278;47.952;21.714;2023-09-19T13:54:45;99970.75;;;19.96;100.00
43071;BME280;36278;47.952;21.714;2023-09-19T13:57:12;99990.47;;;19.88;100.00
43071;BME280;36278;47.952;21.714;2023-09-19T13:59:38;99981.47;;;19.81;100.00
43071;BME280;36278;47.952;21.714;2023-09-19T14:02:04;99986.44;;;19.70;100.00
43071;BME280;36278;47.952;21.714;2023-09-19T14:04:31;99990.53;;;19.66;100.00
43071;BME280;36278;47.952;21.714;2023-09-19T14:06:57;99992.97;;;19.52;100.00
43071;BME280;36278;47.952;21.714;2023-09-19T14:09:24;99999.19;;;19.53;100.00
43071;BME280;36278;47.952;21.714;2023-09-19T14:11:50;100002.69;;;19.39;100.00
43071;BME280;36278;47.952;21.714;2023-09-19T14:14:19;100010.63;;;19.32;100.00